sensor_id;sensor_type;location;lat;lon;timestamp;P1;durP1;ratioP1;P2;durP2;ratioP2
9188;SDS011;34313;50.780;6.084;2022-09-13T00:00:33;2.37;;;2.17;;
9188;SDS011;34313;50.780;6.084;2022-09-13T00:02:59;3.83;;;2.57;;
9188;SDS011;34313;50.780;6.084;2022-09-13T00:05:25;3.10;;;2.60;;
9188;SDS011;34313;50.780;6.084;2022-09-13T00:07:51;3.03;;;2.43;;
9188;SDS011;34313;50.780;6.084;2022-09-13T00:10:16;4.43;;;2.20;;
9188;SDS011;34313;50.780;6.084;2022-09-13T00:12:41;2.90;;;2.27;;
9188;SDS011;34313;50.780;6.084;2022-09-13T00:15:07;3.10;;;2.40;;
9188;SDS011;34313;50.780;6.084;2022-09-13T00:17:33;3.00;;;2.43;;
9188;SDS011;34313;50.780;6.084;2022-09-13T00:19:59;2.87;;;2.57;;
9188;SDS011;34313;50.780;6.084;2022-09-13T00:22:25;2.33;;;2.13;;
9188;SDS011;34313;50.780;6.084;2022-09-13T00:24:50;3.43;;;2.60;;
9188;SDS011;34313;50.780;6.084;2022-09-13T00:27:18;2.53;;;2.23;;
9188;SDS011;34313;50.780;6.084;2022-09-13T00:29:43;4.30;;;2.17;;
9188;SDS011;34313;50.780;6.084;2022-09-13T00:32:10;2.50;;;2.13;;
9188;SDS011;34313;50.780;6.084;2022-09-13T00:34:35;3.13;;;2.00;;
9188;SDS011;34313;50.780;6.084;2022-09-13T00:37:01;3.50;;;2.63;;
9188;SDS011;34313;50.780;6.084;2022-09-13T00:39:26;3.00;;;2.17;;
9188;SDS011;34313;50.780;6.084;2022-09-13T00:41:51;2.27;;;2.07;;
9188;SDS011;34313;50.780;6.084;2022-09-13T00:47:24;2.63;;;1.80;;
9188;SDS011;34313;50.780;6.084;2022-09-13T00:49:55;5.43;;;2.50;;
9188;SDS011;34313;50.780;6.084;2022-09-13T00:52:42;2.20;;;2.00;;
9188;SDS011;34313;50.780;6.084;2022-09-13T00:55:15;2.00;;;1.80;;
9188;SDS011;34313;50.780;6.084;2022-09-13T00:57:55;2.57;;;2.30;;
9188;SDS011;34313;50.780;6.084;2022-09-13T01:00:26;3.20;;;2.17;;
9188;SDS011;34313;50.780;6.084;2022-09-13T01:02:53;2.40;;;1.80;;
9188;SDS011;34313;50.780;6.084;2022-09-13T01:05:23;1.93;;;1.70;;
9188;SDS011;34313;50.780;6.084;2022-09-13T01:07:51;1.97;;;1.83;;
9188;SDS011;34313;50.780;6.084;2022-09-13T01:10:19;2.27;;;2.00;;
9188;SDS011;34313;50.780;6.084;2022-09-13T01:12:50;6.10;;;2.13;;
9188;SDS011;34313;50.780;6.084;2022-09-13T01:15:21;2.13;;;1.80;;
9188;SDS011;34313;50.780;6.084;2022-09-13T01:17:47;2.30;;;1.70;;
9188;SDS011;34313;50.780;6.084;2022-09-13T01:20:13;2.90;;;2.17;;
9188;SDS011;34313;50.780;6.084;2022-09-13T01:31:11;2.67;;;2.10;;
9188;SDS011;34313;50.780;6.084;2022-09-13T01:36:50;2.30;;;2.10;;
9188;SDS011;34313;50.780;6.084;2022-09-13T01:46:04;2.13;;;1.90;;
9188;SDS011;34313;50.780;6.084;2022-09-13T01:51:22;3.97;;;2.30;;
9188;SDS011;34313;50.780;6.084;2022-09-13T01:54:09;4.50;;;2.20;;
9188;SDS011;34313;50.780;6.084;2022-09-13T01:59:21;2.03;;;1.93;;
9188;SDS011;34313;50.780;6.084;2022-09-13T02:01:58;2.60;;;2.40;;
9188;SDS011;34313;50.780;6.084;2022-09-13T02:04:32;2.47;;;2.27;;
9188;SDS011;34313;50.780;6.084;2022-09-13T02:07:06;2.90;;;2.37;;
9188;SDS011;34313;50.780;6.084;2022-09-13T02:09:39;2.70;;;2.20;;
9188;SDS011;34313;50.780;6.084;2022-09-13T02:12:10;3.60;;;2.20;;
9188;SDS011;34313;50.780;6.084;2022-09-13T02:14:42;2.40;;;2.20;;
9188;SDS011;34313;50.780;6.084;2022-09-13T02:17:21;2.60;;;2.30;;
9188;SDS011;34313;50.780;6.084;2022-09-13T02:19:58;2.40;;;2.20;;
9188;SDS011;34313;50.780;6.084;2022-09-13T02:22:29;3.40;;;2.30;;
9188;SDS011;34313;50.780;6.084;2022-09-13T02:25:01;2.90;;;2.30;;
9188;SDS011;34313;50.780;6.084;2022-09-13T02:27:32;3.27;;;2.20;;
9188;SDS011;34313;50.780;6.084;2022-09-13T02:30:09;2.93;;;2.50;;
9188;SDS011;34313;50.780;6.084;2022-09-13T02:32:37;2.53;;;2.10;;
9188;SDS011;34313;50.780;6.084;2022-09-13T02:35:14;1.70;;;1.60;;
9188;SDS011;34313;50.780;6.084;2022-09-13T02:37:44;2.13;;;1.90;;
9188;SDS011;34313;50.780;6.084;2022-09-13T02:40:17;2.90;;;1.80;;
9188;SDS011;34313;50.780;6.084;2022-09-13T02:42:51;2.97;;;1.87;;
9188;SDS011;34313;50.780;6.084;2022-09-13T02:45:24;2.93;;;2.00;;
9188;SDS011;34313;50.780;6.084;2022-09-13T02:47:57;2.63;;;2.20;;
9188;SDS011;34313;50.780;6.084;2022-09-13T02:50:29;2.50;;;1.80;;
9188;SDS011;34313;50.780;6.084;2022-09-13T02:53:03;1.63;;;1.53;;
9188;SDS011;34313;50.780;6.084;2022-09-13T02:58:07;2.20;;;1.80;;
9188;SDS011;34313;50.780;6.084;2022-09-13T03:00:38;3.20;;;2.07;;
9188;SDS011;34313;50.780;6.084;2022-09-13T03:03:04;2.43;;;1.90;;
9188;SDS011;34313;50.780;6.084;2022-09-13T03:05:32;3.40;;;1.83;;
9188;SDS011;34313;50.780;6.084;2022-09-13T03:07:58;3.00;;;2.00;;
9188;SDS011;34313;50.780;6.084;2022-09-13T03:10:24;5.43;;;1.70;;
9188;SDS011;34313;50.780;6.084;2022-09-13T03:13:06;1.90;;;1.40;;
9188;SDS011;34313;50.780;6.084;2022-09-13T03:23:39;2.67;;;2.47;;
9188;SDS011;34313;50.780;6.084;2022-09-13T03:26:22;2.00;;;1.90;;
9188;SDS011;34313;50.780;6.084;2022-09-13T03:28:57;3.27;;;1.70;;
9188;SDS011;34313;50.780;6.084;2022-09-13T03:31:50;2.77;;;1.73;;
9188;SDS011;34313;50.780;6.084;2022-09-13T03:34:29;4.73;;;1.70;;
9188;SDS011;34313;50.780;6.084;2022-09-13T03:40:13;2.27;;;1.80;;
9188;SDS011;34313;50.780;6.084;2022-09-13T03:42:27;2.50;;;1.40;;
9188;SDS011;34313;50.780;6.084;2022-09-13T03:45:05;2.03;;;1.83;;
9188;SDS011;34313;50.780;6.084;2022-09-13T03:47:34;1.70;;;1.60;;
9188;SDS011;34313;50.780;6.084;2022-09-13T03:50:02;1.80;;;1.60;;
9188;SDS011;34313;50.780;6.084;2022-09-13T03:52:30;5.60;;;1.87;;
9188;SDS011;34313;50.780;6.084;2022-09-13T03:54:56;1.70;;;1.40;;
9188;SDS011;34313;50.780;6.084;2022-09-13T03:57:22;1.90;;;1.70;;
9188;SDS011;34313;50.780;6.084;2022-09-13T04:02:15;2.50;;;1.83;;
9188;SDS011;34313;50.780;6.084;2022-09-13T04:04:42;2.70;;;1.70;;
9188;SDS011;34313;50.780;6.084;2022-09-13T04:07:09;1.67;;;1.57;;
9188;SDS011;34313;50.780;6.084;2022-09-13T04:09:35;2.00;;;1.70;;
9188;SDS011;34313;50.780;6.084;2022-09-13T04:12:01;1.80;;;1.70;;
9188;SDS011;34313;50.780;6.084;2022-09-13T04:14:27;2.80;;;1.90;;
9188;SDS011;34313;50.780;6.084;2022-09-13T04:16:53;2.50;;;1.90;;
9188;SDS011;34313;50.780;6.084;2022-09-13T04:19:19;2.77;;;2.33;;
9188;SDS011;34313;50.780;6.084;2022-09-13T04:21:51;2.03;;;1.93;;
9188;SDS011;34313;50.780;6.084;2022-09-13T04:24:18;2.17;;;1.67;;
9188;SDS011;34313;50.780;6.084;2022-09-13T04:26:47;2.37;;;1.80;;
9188;SDS011;34313;50.780;6.084;2022-09-13T04:29:15;2.13;;;1.87;;
9188;SDS011;34313;50.780;6.084;2022-09-13T04:31:40;1.73;;;1.50;;
9188;SDS011;34313;50.780;6.084;2022-09-13T04:34:05;1.60;;;1.47;;
9188;SDS011;34313;50.780;6.084;2022-09-13T04:36:31;2.17;;;1.63;;
9188;SDS011;34313;50.780;6.084;2022-09-13T04:38:57;1.83;;;1.70;;
9188;SDS011;34313;50.780;6.084;2022-09-13T04:41:24;2.23;;;1.83;;
9188;SDS011;34313;50.780;6.084;2022-09-13T04:43:50;2.00;;;1.80;;
9188;SDS011;34313;50.780;6.084;2022-09-13T04:46:15;2.10;;;1.80;;
9188;SDS011;34313;50.780;6.084;2022-09-13T04:48:41;1.77;;;1.50;;
9188;SDS011;34313;50.780;6.084;2022-09-13T04:51:06;1.40;;;1.30;;
9188;SDS011;34313;50.780;6.084;2022-09-13T04:53:32;1.93;;;1.60;;
9188;SDS011;34313;50.780;6.084;2022-09-13T04:56:01;2.03;;;1.90;;
9188;SDS011;34313;50.780;6.084;2022-09-13T04:58:27;1.63;;;1.50;;
9188;SDS011;34313;50.780;6.084;2022-09-13T05:00:53;2.17;;;1.90;;
9188;SDS011;34313;50.780;6.084;2022-09-13T05:03:24;4.57;;;1.60;;
9188;SDS011;34313;50.780;6.084;2022-09-13T05:05:50;4.07;;;2.40;;
9188;SDS011;34313;50.780;6.084;2022-09-13T05:08:15;2.97;;;2.30;;
9188;SDS011;34313;50.780;6.084;2022-09-13T05:10:40;3.13;;;2.10;;
9188;SDS011;34313;50.780;6.084;2022-09-13T05:13:05;2.70;;;2.00;;
9188;SDS011;34313;50.780;6.084;2022-09-13T05:15:31;3.10;;;2.00;;
9188;SDS011;34313;50.780;6.084;2022-09-13T05:17:56;3.60;;;2.63;;
9188;SDS011;34313;50.780;6.084;2022-09-13T05:20:22;2.73;;;2.53;;
9188;SDS011;34313;50.780;6.084;2022-09-13T05:22:47;3.23;;;2.10;;
9188;SDS011;34313;50.780;6.084;2022-09-13T05:25:12;2.97;;;2.00;;
9188;SDS011;34313;50.780;6.084;2022-09-13T05:27:38;2.60;;;2.00;;
9188;SDS011;34313;50.780;6.084;2022-09-13T05:30:03;2.53;;;2.20;;
9188;SDS011;34313;50.780;6.084;2022-09-13T05:32:30;2.80;;;1.90;;
9188;SDS011;34313;50.780;6.084;2022-09-13T05:34:56;2.70;;;2.27;;
9188;SDS011;34313;50.780;6.084;2022-09-13T05:37:21;3.50;;;2.13;;
9188;SDS011;34313;50.780;6.084;2022-09-13T05:39:47;2.93;;;1.73;;
9188;SDS011;34313;50.780;6.084;2022-09-13T05:42:12;1.60;;;1.50;;
9188;SDS011;34313;50.780;6.084;2022-09-13T05:44:37;2.13;;;1.93;;
9188;SDS011;34313;50.780;6.084;2022-09-13T05:47:03;2.07;;;1.70;;
9188;SDS011;34313;50.780;6.084;2022-09-13T05:49:29;3.63;;;2.20;;
9188;SDS011;34313;50.780;6.084;2022-09-13T05:51:55;5.73;;;2.30;;
9188;SDS011;34313;50.780;6.084;2022-09-13T05:54:20;2.83;;;1.90;;
9188;SDS011;34313;50.780;6.084;2022-09-13T05:56:46;1.70;;;1.60;;
9188;SDS011;34313;50.780;6.084;2022-09-13T05:59:11;3.50;;;1.63;;
9188;SDS011;34313;50.780;6.084;2022-09-13T06:01:38;1.63;;;1.53;;
9188;SDS011;34313;50.780;6.084;2022-09-13T06:04:04;2.90;;;1.93;;
9188;SDS011;34313;50.780;6.084;2022-09-13T06:06:29;2.90;;;2.10;;
9188;SDS011;34313;50.780;6.084;2022-09-13T06:08:55;2.07;;;1.63;;
9188;SDS011;34313;50.780;6.084;2022-09-13T06:11:22;3.47;;;1.67;;
9188;SDS011;34313;50.780;6.084;2022-09-13T06:13:54;7.13;;;1.80;;
9188;SDS011;34313;50.780;6.084;2022-09-13T06:16:19;3.97;;;2.10;;
9188;SDS011;34313;50.780;6.084;2022-09-13T06:18:45;3.03;;;1.77;;
9188;SDS011;34313;50.780;6.084;2022-09-13T06:21:14;4.43;;;1.93;;
9188;SDS011;34313;50.780;6.084;2022-09-13T06:23:42;3.77;;;1.90;;
9188;SDS011;34313;50.780;6.084;2022-09-13T06:26:21;3.63;;;1.93;;
9188;SDS011;34313;50.780;6.084;2022-09-13T06:28:52;2.87;;;1.70;;
9188;SDS011;34313;50.780;6.084;2022-09-13T06:31:19;1.83;;;1.50;;
9188;SDS011;34313;50.780;6.084;2022-09-13T06:33:46;2.13;;;1.80;;
9188;SDS011;34313;50.780;6.084;2022-09-13T06:36:13;1.97;;;1.70;;
9188;SDS011;34313;50.780;6.084;2022-09-13T06:38:42;7.40;;;4.80;;
9188;SDS011;34313;50.780;6.084;2022-09-13T06:41:12;3.67;;;3.00;;
9188;SDS011;34313;50.780;6.084;2022-09-13T06:43:39;7.03;;;2.33;;
9188;SDS011;34313;50.780;6.084;2022-09-13T06:46:12;2.93;;;1.80;;
9188;SDS011;34313;50.780;6.084;2022-09-13T06:48:40;3.07;;;1.80;;
9188;SDS011;34313;50.780;6.084;2022-09-13T06:51:17;2.57;;;1.53;;
9188;SDS011;34313;50.780;6.084;2022-09-13T06:53:45;3.27;;;2.13;;
9188;SDS011;34313;50.780;6.084;2022-09-13T06:56:13;2.90;;;1.70;;
9188;SDS011;34313;50.780;6.084;2022-09-13T06:58:40;2.70;;;1.80;;
9188;SDS011;34313;50.780;6.084;2022-09-13T07:01:07;3.50;;;2.40;;
9188;SDS011;34313;50.780;6.084;2022-09-13T07:03:39;3.10;;;2.40;;
9188;SDS011;34313;50.780;6.084;2022-09-13T07:06:14;7.53;;;2.90;;
9188;SDS011;34313;50.780;6.084;2022-09-13T07:08:44;6.07;;;2.57;;
9188;SDS011;34313;50.780;6.084;2022-09-13T07:11:11;5.17;;;2.30;;
9188;SDS011;34313;50.780;6.084;2022-09-13T07:13:37;2.67;;;2.40;;
9188;SDS011;34313;50.780;6.084;2022-09-13T07:16:04;6.23;;;1.93;;
9188;SDS011;34313;50.780;6.084;2022-09-13T07:18:31;2.27;;;2.07;;
9188;SDS011;34313;50.780;6.084;2022-09-13T07:21:00;2.63;;;1.60;;
9188;SDS011;34313;50.780;6.084;2022-09-13T07:23:33;2.30;;;1.40;;
9188;SDS011;34313;50.780;6.084;2022-09-13T07:26:00;3.27;;;1.57;;
9188;SDS011;34313;50.780;6.084;2022-09-13T07:28:31;2.50;;;1.83;;
9188;SDS011;34313;50.780;6.084;2022-09-13T07:31:43;2.40;;;1.67;;
9188;SDS011;34313;50.780;6.084;2022-09-13T07:33:56;2.63;;;1.67;;
9188;SDS011;34313;50.780;6.084;2022-09-13T07:36:23;3.47;;;1.77;;
9188;SDS011;34313;50.780;6.084;2022-09-13T07:38:49;2.80;;;1.70;;
9188;SDS011;34313;50.780;6.084;2022-09-13T07:41:18;1.73;;;1.53;;
9188;SDS011;34313;50.780;6.084;2022-09-13T07:43:45;4.20;;;1.80;;
9188;SDS011;34313;50.780;6.084;2022-09-13T07:46:12;2.27;;;1.80;;
9188;SDS011;34313;50.780;6.084;2022-09-13T07:48:40;1.77;;;1.47;;
9188;SDS011;34313;50.780;6.084;2022-09-13T07:51:13;5.87;;;1.70;;
9188;SDS011;34313;50.780;6.084;2022-09-13T07:53:45;3.97;;;2.13;;
9188;SDS011;34313;50.780;6.084;2022-09-13T07:56:18;5.53;;;1.67;;
9188;SDS011;34313;50.780;6.084;2022-09-13T07:58:46;3.43;;;1.93;;
9188;SDS011;34313;50.780;6.084;2022-09-13T08:01:17;2.00;;;1.77;;
9188;SDS011;34313;50.780;6.084;2022-09-13T08:03:44;2.17;;;1.70;;
9188;SDS011;34313;50.780;6.084;2022-09-13T08:06:15;3.57;;;1.80;;
9188;SDS011;34313;50.780;6.084;2022-09-13T08:08:41;1.73;;;1.63;;
9188;SDS011;34313;50.780;6.084;2022-09-13T08:11:06;2.83;;;1.80;;
9188;SDS011;34313;50.780;6.084;2022-09-13T08:13:32;3.00;;;2.10;;
9188;SDS011;34313;50.780;6.084;2022-09-13T08:16:04;2.30;;;2.10;;
9188;SDS011;34313;50.780;6.084;2022-09-13T08:18:30;3.13;;;1.90;;
9188;SDS011;34313;50.780;6.084;2022-09-13T08:20:56;5.13;;;2.10;;
9188;SDS011;34313;50.780;6.084;2022-09-13T08:23:23;1.73;;;1.40;;
9188;SDS011;34313;50.780;6.084;2022-09-13T08:25:49;1.60;;;1.50;;
9188;SDS011;34313;50.780;6.084;2022-09-13T08:28:16;2.13;;;1.93;;
9188;SDS011;34313;50.780;6.084;2022-09-13T08:30:45;2.37;;;1.40;;
9188;SDS011;34313;50.780;6.084;2022-09-13T08:33:10;6.73;;;1.47;;
9188;SDS011;34313;50.780;6.084;2022-09-13T08:35:36;3.23;;;1.70;;
9188;SDS011;34313;50.780;6.084;2022-09-13T08:38:02;2.20;;;1.50;;
9188;SDS011;34313;50.780;6.084;2022-09-13T08:40:33;2.73;;;1.87;;
9188;SDS011;34313;50.780;6.084;2022-09-13T08:43:14;3.57;;;1.80;;
9188;SDS011;34313;50.780;6.084;2022-09-13T08:45:41;4.23;;;1.60;;
9188;SDS011;34313;50.780;6.084;2022-09-13T08:48:14;3.63;;;1.70;;
9188;SDS011;34313;50.780;6.084;2022-09-13T08:50:43;2.00;;;1.50;;
9188;SDS011;34313;50.780;6.084;2022-09-13T08:55:53;1.43;;;1.33;;
9188;SDS011;34313;50.780;6.084;2022-09-13T09:06:40;4.40;;;2.10;;
9188;SDS011;34313;50.780;6.084;2022-09-13T09:09:07;3.10;;;2.00;;
9188;SDS011;34313;50.780;6.084;2022-09-13T09:14:29;5.40;;;1.93;;
9188;SDS011;34313;50.780;6.084;2022-09-13T09:19:33;3.40;;;2.50;;
9188;SDS011;34313;50.780;6.084;2022-09-13T09:22:03;2.27;;;1.90;;
9188;SDS011;34313;50.780;6.084;2022-09-13T09:24:31;3.90;;;2.03;;
9188;SDS011;34313;50.780;6.084;2022-09-13T09:27:00;3.33;;;2.00;;
9188;SDS011;34313;50.780;6.084;2022-09-13T09:29:30;5.60;;;1.70;;
9188;SDS011;34313;50.780;6.084;2022-09-13T09:34:54;2.20;;;1.87;;
9188;SDS011;34313;50.780;6.084;2022-09-13T09:37:27;2.67;;;2.20;;
9188;SDS011;34313;50.780;6.084;2022-09-13T09:39:57;2.10;;;1.97;;
9188;SDS011;34313;50.780;6.084;2022-09-13T09:42:27;8.03;;;1.93;;
9188;SDS011;34313;50.780;6.084;2022-09-13T09:47:46;2.27;;;1.97;;
9188;SDS011;34313;50.780;6.084;2022-09-13T09:50:24;3.03;;;2.30;;
9188;SDS011;34313;50.780;6.084;2022-09-13T09:53:04;4.17;;;2.20;;
9188;SDS011;34313;50.780;6.084;2022-09-13T09:58:11;6.40;;;2.77;;
9188;SDS011;34313;50.780;6.084;2022-09-13T10:00:57;7.00;;;2.87;;
9188;SDS011;34313;50.780;6.084;2022-09-13T10:03:24;4.73;;;2.57;;
9188;SDS011;34313;50.780;6.084;2022-09-13T10:06:02;3.27;;;2.60;;
9188;SDS011;34313;50.780;6.084;2022-09-13T10:08:30;3.30;;;2.70;;
9188;SDS011;34313;50.780;6.084;2022-09-13T10:10:59;2.17;;;1.80;;
9188;SDS011;34313;50.780;6.084;2022-09-13T10:13:26;2.60;;;2.20;;
9188;SDS011;34313;50.780;6.084;2022-09-13T10:16:00;3.40;;;2.47;;
9188;SDS011;34313;50.780;6.084;2022-09-13T10:18:31;2.80;;;2.60;;
9188;SDS011;34313;50.780;6.084;2022-09-13T10:21:06;3.63;;;2.20;;
9188;SDS011;34313;50.780;6.084;2022-09-13T10:23:45;5.53;;;3.10;;
9188;SDS011;34313;50.780;6.084;2022-09-13T10:26:18;2.40;;;2.07;;
9188;SDS011;34313;50.780;6.084;2022-09-13T10:31:33;2.60;;;2.07;;
9188;SDS011;34313;50.780;6.084;2022-09-13T10:34:05;2.70;;;2.37;;
9188;SDS011;34313;50.780;6.084;2022-09-13T10:36:37;3.77;;;1.90;;
9188;SDS011;34313;50.780;6.084;2022-09-13T10:39:12;1.93;;;1.50;;
9188;SDS011;34313;50.780;6.084;2022-09-13T10:41:42;3.33;;;1.70;;
9188;SDS011;34313;50.780;6.084;2022-09-13T10:44:25;5.00;;;1.53;;
9188;SDS011;34313;50.780;6.084;2022-09-13T10:47:05;3.50;;;2.27;;
9188;SDS011;34313;50.780;6.084;2022-09-13T10:49:36;6.20;;;1.97;;
9188;SDS011;34313;50.780;6.084;2022-09-13T10:54:49;2.33;;;1.13;;
9188;SDS011;34313;50.780;6.084;2022-09-13T10:57:31;2.10;;;1.63;;
9188;SDS011;34313;50.780;6.084;2022-09-13T10:59:58;2.93;;;1.70;;
9188;SDS011;34313;50.780;6.084;2022-09-13T11:05:48;1.70;;;1.53;;
9188;SDS011;34313;50.780;6.084;2022-09-13T11:19:08;2.43;;;1.70;;
9188;SDS011;34313;50.780;6.084;2022-09-13T11:29:47;1.80;;;1.37;;
9188;SDS011;34313;50.780;6.084;2022-09-13T11:40:18;2.30;;;1.27;;
9188;SDS011;34313;50.780;6.084;2022-09-13T11:42:50;2.57;;;1.57;;
9188;SDS011;34313;50.780;6.084;2022-09-13T11:48:48;3.17;;;1.57;;
9188;SDS011;34313;50.780;6.084;2022-09-13T11:51:23;5.17;;;2.20;;
9188;SDS011;34313;50.780;6.084;2022-09-13T11:56:30;2.53;;;1.80;;
9188;SDS011;34313;50.780;6.084;2022-09-13T11:59:20;6.03;;;2.27;;
9188;SDS011;34313;50.780;6.084;2022-09-13T12:02:11;3.13;;;1.83;;
9188;SDS011;34313;50.780;6.084;2022-09-13T12:04:53;3.00;;;2.13;;
9188;SDS011;34313;50.780;6.084;2022-09-13T12:07:30;2.50;;;1.53;;
9188;SDS011;34313;50.780;6.084;2022-09-13T12:10:05;3.00;;;1.67;;
9188;SDS011;34313;50.780;6.084;2022-09-13T12:13:09;2.83;;;2.07;;
9188;SDS011;34313;50.780;6.084;2022-09-13T12:15:41;2.20;;;1.80;;
9188;SDS011;34313;50.780;6.084;2022-09-13T12:21:08;2.63;;;1.67;;
9188;SDS011;34313;50.780;6.084;2022-09-13T12:23:41;2.37;;;2.17;;
9188;SDS011;34313;50.780;6.084;2022-09-13T12:26:15;3.50;;;2.00;;
9188;SDS011;34313;50.780;6.084;2022-09-13T12:28:47;6.87;;;2.20;;
9188;SDS011;34313;50.780;6.084;2022-09-13T12:31:25;2.67;;;2.00;;
9188;SDS011;34313;50.780;6.084;2022-09-13T12:33:52;6.43;;;2.20;;
9188;SDS011;34313;50.780;6.084;2022-09-13T12:41:51;4.50;;;2.20;;
9188;SDS011;34313;50.780;6.084;2022-09-13T12:56:12;2.20;;;1.67;;
9188;SDS011;34313;50.780;6.084;2022-09-13T12:59:15;1.80;;;1.70;;
9188;SDS011;34313;50.780;6.084;2022-09-13T13:01:54;2.17;;;1.70;;
9188;SDS011;34313;50.780;6.084;2022-09-13T13:06:51;2.27;;;1.57;;
9188;SDS011;34313;50.780;6.084;2022-09-13T13:14:49;2.03;;;1.50;;
9188;SDS011;34313;50.780;6.084;2022-09-13T13:39:03;1.73;;;1.50;;
9188;SDS011;34313;50.780;6.084;2022-09-13T13:59:51;2.07;;;1.60;;
9188;SDS011;34313;50.780;6.084;2022-09-13T14:02:20;2.50;;;2.03;;
9188;SDS011;34313;50.780;6.084;2022-09-13T14:05:02;2.27;;;1.73;;
9188;SDS011;34313;50.780;6.084;2022-09-13T14:07:35;2.53;;;1.13;;
9188;SDS011;34313;50.780;6.084;2022-09-13T14:10:18;1.60;;;1.50;;
9188;SDS011;34313;50.780;6.084;2022-09-13T14:18:16;1.77;;;1.50;;
9188;SDS011;34313;50.780;6.084;2022-09-13T14:20:56;1.50;;;1.40;;
9188;SDS011;34313;50.780;6.084;2022-09-13T14:23:29;4.10;;;2.10;;
9188;SDS011;34313;50.780;6.084;2022-09-13T14:25:56;2.80;;;2.00;;
9188;SDS011;34313;50.780;6.084;2022-09-13T14:28:24;3.50;;;2.60;;
9188;SDS011;34313;50.780;6.084;2022-09-13T14:30:57;2.53;;;2.03;;
9188;SDS011;34313;50.780;6.084;2022-09-13T14:33:31;2.30;;;1.47;;
9188;SDS011;34313;50.780;6.084;2022-09-13T14:36:13;2.47;;;1.50;;
9188;SDS011;34313;50.780;6.084;2022-09-13T14:39:00;1.70;;;1.50;;
9188;SDS011;34313;50.780;6.084;2022-09-13T14:41:33;6.70;;;1.40;;
9188;SDS011;34313;50.780;6.084;2022-09-13T14:44:16;2.30;;;1.50;;
9188;SDS011;34313;50.780;6.084;2022-09-13T14:46:45;3.37;;;1.70;;
9188;SDS011;34313;50.780;6.084;2022-09-13T14:49:20;3.63;;;1.53;;
9188;SDS011;34313;50.780;6.084;2022-09-13T14:51:58;1.83;;;1.40;;
9188;SDS011;34313;50.780;6.084;2022-09-13T14:56:55;4.30;;;2.10;;
9188;SDS011;34313;50.780;6.084;2022-09-13T14:59:26;3.70;;;1.80;;
9188;SDS011;34313;50.780;6.084;2022-09-13T15:01:52;2.17;;;1.80;;
9188;SDS011;34313;50.780;6.084;2022-09-13T15:04:18;2.60;;;1.90;;
9188;SDS011;34313;50.780;6.084;2022-09-13T15:06:47;1.90;;;1.40;;
9188;SDS011;34313;50.780;6.084;2022-09-13T15:09:41;4.03;;;2.07;;
9188;SDS011;34313;50.780;6.084;2022-09-13T15:12:17;2.30;;;2.00;;
9188;SDS011;34313;50.780;6.084;2022-09-13T15:14:47;3.40;;;2.57;;
9188;SDS011;34313;50.780;6.084;2022-09-13T15:17:13;3.53;;;3.00;;
9188;SDS011;34313;50.780;6.084;2022-09-13T15:19:42;5.10;;;2.63;;
9188;SDS011;34313;50.780;6.084;2022-09-13T15:22:27;3.83;;;2.90;;
9188;SDS011;34313;50.780;6.084;2022-09-13T15:24:58;3.60;;;2.60;;
9188;SDS011;34313;50.780;6.084;2022-09-13T15:27:27;4.97;;;2.77;;
9188;SDS011;34313;50.780;6.084;2022-09-13T15:29:55;3.53;;;3.10;;
9188;SDS011;34313;50.780;6.084;2022-09-13T15:35:34;3.53;;;3.23;;
9188;SDS011;34313;50.780;6.084;2022-09-13T15:40:59;6.43;;;2.50;;
9188;SDS011;34313;50.780;6.084;2022-09-13T15:43:36;5.07;;;3.20;;
9188;SDS011;34313;50.780;6.084;2022-09-13T15:46:02;4.17;;;2.70;;
9188;SDS011;34313;50.780;6.084;2022-09-13T15:48:29;10.97;;;5.90;;
9188;SDS011;34313;50.780;6.084;2022-09-13T15:51:09;9.70;;;5.20;;
9188;SDS011;34313;50.780;6.084;2022-09-13T15:53:37;7.83;;;4.43;;
9188;SDS011;34313;50.780;6.084;2022-09-13T15:56:04;5.17;;;4.00;;
9188;SDS011;34313;50.780;6.084;2022-09-13T15:58:31;4.70;;;3.73;;
9188;SDS011;34313;50.780;6.084;2022-09-13T16:00:57;3.67;;;3.23;;
9188;SDS011;34313;50.780;6.084;2022-09-13T16:03:23;5.63;;;3.40;;
9188;SDS011;34313;50.780;6.084;2022-09-13T16:05:48;5.30;;;3.53;;
9188;SDS011;34313;50.780;6.084;2022-09-13T16:08:14;5.30;;;4.00;;
9188;SDS011;34313;50.780;6.084;2022-09-13T16:10:41;5.53;;;3.77;;
9188;SDS011;34313;50.780;6.084;2022-09-13T16:13:15;5.73;;;3.67;;
9188;SDS011;34313;50.780;6.084;2022-09-13T16:15:40;5.77;;;4.10;;
9188;SDS011;34313;50.780;6.084;2022-09-13T16:18:06;5.50;;;4.20;;
9188;SDS011;34313;50.780;6.084;2022-09-13T16:20:31;4.63;;;4.10;;
9188;SDS011;34313;50.780;6.084;2022-09-13T16:22:57;6.90;;;4.47;;
9188;SDS011;34313;50.780;6.084;2022-09-13T16:25:22;6.50;;;4.83;;
9188;SDS011;34313;50.780;6.084;2022-09-13T16:27:48;8.07;;;5.37;;
9188;SDS011;34313;50.780;6.084;2022-09-13T16:30:15;9.53;;;4.50;;
9188;SDS011;34313;50.780;6.084;2022-09-13T16:32:42;6.10;;;4.60;;
9188;SDS011;34313;50.780;6.084;2022-09-13T16:35:09;8.67;;;5.13;;
9188;SDS011;34313;50.780;6.084;2022-09-13T16:37:35;6.20;;;4.80;;
9188;SDS011;34313;50.780;6.084;2022-09-13T16:40:02;6.30;;;4.73;;
9188;SDS011;34313;50.780;6.084;2022-09-13T16:42:28;11.90;;;5.63;;
9188;SDS011;34313;50.780;6.084;2022-09-13T16:44:54;8.50;;;5.13;;
9188;SDS011;34313;50.780;6.084;2022-09-13T16:47:19;7.60;;;4.63;;
9188;SDS011;34313;50.780;6.084;2022-09-13T16:49:45;8.30;;;5.13;;
9188;SDS011;34313;50.780;6.084;2022-09-13T16:52:13;5.63;;;4.40;;
9188;SDS011;34313;50.780;6.084;2022-09-13T16:54:39;6.77;;;4.93;;
9188;SDS011;34313;50.780;6.084;2022-09-13T16:57:05;9.40;;;4.57;;
9188;SDS011;34313;50.780;6.084;2022-09-13T16:59:31;6.10;;;4.00;;
9188;SDS011;34313;50.780;6.084;2022-09-13T17:01:58;7.83;;;4.07;;
9188;SDS011;34313;50.780;6.084;2022-09-13T17:04:24;7.83;;;3.30;;
9188;SDS011;34313;50.780;6.084;2022-09-13T17:06:49;5.37;;;2.80;;
9188;SDS011;34313;50.780;6.084;2022-09-13T17:09:15;4.70;;;2.83;;
9188;SDS011;34313;50.780;6.084;2022-09-13T17:11:42;2.60;;;2.40;;
9188;SDS011;34313;50.780;6.084;2022-09-13T17:14:09;3.70;;;2.60;;
9188;SDS011;34313;50.780;6.084;2022-09-13T17:16:40;4.60;;;2.40;;
9188;SDS011;34313;50.780;6.084;2022-09-13T17:19:13;3.73;;;2.87;;
9188;SDS011;34313;50.780;6.084;2022-09-13T17:21:41;3.20;;;2.23;;
9188;SDS011;34313;50.780;6.084;2022-09-13T17:24:07;3.20;;;2.40;;
9188;SDS011;34313;50.780;6.084;2022-09-13T17:26:32;6.07;;;3.20;;
9188;SDS011;34313;50.780;6.084;2022-09-13T17:29:01;2.83;;;2.53;;
9188;SDS011;34313;50.780;6.084;2022-09-13T17:31:27;3.47;;;2.80;;
9188;SDS011;34313;50.780;6.084;2022-09-13T17:33:52;3.57;;;3.13;;
9188;SDS011;34313;50.780;6.084;2022-09-13T17:36:18;5.20;;;2.97;;
9188;SDS011;34313;50.780;6.084;2022-09-13T17:38:44;10.77;;;3.10;;
9188;SDS011;34313;50.780;6.084;2022-09-13T17:41:11;4.00;;;3.13;;
9188;SDS011;34313;50.780;6.084;2022-09-13T17:43:39;4.40;;;3.60;;
9188;SDS011;34313;50.780;6.084;2022-09-13T17:46:12;7.33;;;3.90;;
9188;SDS011;34313;50.780;6.084;2022-09-13T17:48:41;6.70;;;4.23;;
9188;SDS011;34313;50.780;6.084;2022-09-13T17:51:08;5.17;;;3.77;;
9188;SDS011;34313;50.780;6.084;2022-09-13T17:53:40;8.63;;;3.80;;
9188;SDS011;34313;50.780;6.084;2022-09-13T17:56:10;6.73;;;3.80;;
9188;SDS011;34313;50.780;6.084;2022-09-13T17:58:36;5.47;;;3.93;;
9188;SDS011;34313;50.780;6.084;2022-09-13T18:01:03;3.67;;;3.37;;
9188;SDS011;34313;50.780;6.084;2022-09-13T18:03:31;5.63;;;4.23;;
9188;SDS011;34313;50.780;6.084;2022-09-13T18:05:58;6.47;;;4.00;;
9188;SDS011;34313;50.780;6.084;2022-09-13T18:08:25;4.27;;;3.87;;
9188;SDS011;34313;50.780;6.084;2022-09-13T18:10:53;4.93;;;3.47;;
9188;SDS011;34313;50.780;6.084;2022-09-13T18:13:27;5.13;;;3.20;;
9188;SDS011;34313;50.780;6.084;2022-09-13T18:15:57;4.83;;;3.40;;
9188;SDS011;34313;50.780;6.084;2022-09-13T18:18:29;4.07;;;2.77;;
9188;SDS011;34313;50.780;6.084;2022-09-13T18:20:59;4.60;;;3.20;;
9188;SDS011;34313;50.780;6.084;2022-09-13T18:23:33;4.90;;;3.00;;
9188;SDS011;34313;50.780;6.084;2022-09-13T18:26:00;5.83;;;3.30;;
9188;SDS011;34313;50.780;6.084;2022-09-13T18:28:28;5.30;;;4.03;;